sensor_id;sensor_type;location;lat;lon;timestamp;pressure;altitude;pressure_sealevel;temperature;humidity
29239;BME280;16267;48.194;11.546;2022-09-02T04:07:35;95985.44;;;14.80;75.73
29239;BME280;16267;48.194;11.546;2022-09-02T04:10:01;95983.59;;;14.77;75.84
29239;BME280;16267;48.194;11.546;2022-09-02T04:12:27;95982.84;;;14.76;76.12
29239;BME280;16267;48.194;11.546;2022-09-02T04:14:52;95984.03;;;14.75;75.97
29239;BME280;16267;48.194;11.546;2022-09-02T04:21:18;95981.84;;;14.70;76.24
29239;BME280;16267;48.194;11.546;2022-09-02T04:23:44;95986.50;;;14.69;76.12
29239;BME280;16267;48.194;11.546;2022-09-02T04:26:14;95986.91;;;14.68;76.31
29239;BME280;16267;48.194;11.546;2022-09-02T04:28:41;95985.81;;;14.65;76.00
29239;BME280;16267;48.194;11.546;2022-09-02T04:31:11;95984.31;;;14.64;76.11
29239;BME280;16267;48.194;11.546;2022-09-02T04:33:38;95987.44;;;14.63;76.16
29239;BME280;16267;48.194;11.546;2022-09-02T04:36:07;95982.47;;;14.61;76.28
29239;BME280;16267;48.194;11.546;2022-09-02T04:38:34;95980.94;;;14.60;76.40
29239;BME280;16267;48.194;11.546;2022-09-02T04:41:07;95982.88;;;14.60;76.20
29239;BME280;16267;48.194;11.546;2022-09-02T04:43:33;95986.78;;;14.59;76.36
29239;BME280;16267;48.194;11.546;2022-09-02T04:45:59;95985.28;;;14.58;76.43
29239;BME280;16267;48.194;11.546;2022-09-02T04:48:26;95989.13;;;14.57;76.48
29239;BME280;16267;48.194;11.546;2022-09-02T04:50:51;95987.63;;;14.56;76.59
29239;BME280;16267;48.194;11.546;2022-09-02T04:53:17;95993.44;;;14.54;76.47
29239;BME280;16267;48.194;11.546;2022-09-02T04:55:43;95983.84;;;14.53;76.52
29239;BME280;16267;48.194;11.546;2022-09-02T04:58:10;95985.00;;;14.52;76.55
29239;BME280;16267;48.194;11.546;2022-09-02T05:00:38;95988.88;;;14.51;76.67
29239;BME280;16267;48.194;11.546;2022-09-02T05:03:04;95980.00;;;14.50;76.74
29239;BME280;16267;48.194;11.546;2022-09-02T05:05:32;95990.81;;;14.50;76.58
29239;BME280;16267;48.194;11.546;2022-09-02T05:07:59;95992.41;;;14.48;76.73
29239;BME280;16267;48.194;11.546;2022-09-02T05:10:24;95994.38;;;14.47;76.96
29239;BME280;16267;48.194;11.546;2022-09-02T05:12:50;95986.69;;;14.46;77.01
29239;BME280;16267;48.194;11.546;2022-09-02T05:15:17;95997.47;;;14.46;77.06
29239;BME280;16267;48.194;11.546;2022-09-02T05:17:43;95993.28;;;14.45;77.20
29239;BME280;16267;48.194;11.546;2022-09-02T05:20:11;95995.22;;;14.44;77.11
29239;BME280;16267;48.194;11.546;2022-09-02T05:22:37;95994.47;;;14.44;77.31
29239;BME280;16267;48.194;11.546;2022-09-02T05:25:04;95992.53;;;14.44;77.51
29239;BME280;16267;48.194;11.546;2022-09-02T05:27:32;95991.78;;;14.44;77.51
29239;BME280;16267;48.194;11.546;2022-09-02T05:29:58;95992.94;;;14.43;77.84
29239;BME280;16267;48.194;11.546;2022-09-02T05:32:27;95989.47;;;14.42;77.91
29239;BME280;16267;48.194;11.546;2022-09-02T05:34:54;95984.84;;;14.43;77.90
29239;BME280;16267;48.194;11.546;2022-09-02T05:37:20;95993.28;;;14.45;78.25
29239;BME280;16267;48.194;11.546;2022-09-02T05:39:46;95999.44;;;14.45;78.68
29239;BME280;16267;48.194;11.546;2022-09-02T05:42:12;95998.25;;;14.46;78.83
29239;BME280;16267;48.194;11.546;2022-09-02T05:44:38;95989.72;;;14.48;78.93
29239;BME280;16267;48.194;11.546;2022-09-02T05:47:05;95998.16;;;14.50;79.18
29239;BME280;16267;48.194;11.546;2022-09-02T05:49:30;95997.34;;;14.53;79.12
29239;BME280;16267;48.194;11.546;2022-09-02T05:52:00;95997.69;;;14.55;79.49
29239;BME280;16267;48.194;11.546;2022-09-02T05:54:30;95996.81;;;14.58;79.63
29239;BME280;16267;48.194;11.546;2022-09-02T05:57:07;95999.84;;;14.60;79.47
29239;BME280;16267;48.194;11.546;2022-09-02T05:59:34;95989.03;;;14.60;80.52
29239;BME280;16267;48.194;11.546;2022-09-02T06:02:01;95988.63;;;14.62;80.86
29239;BME280;16267;48.194;11.546;2022-09-02T06:04:27;95989.72;;;14.64;80.67
29239;BME280;16267;48.194;11.546;2022-09-02T06:06:53;95992.41;;;14.64;81.63
29239;BME280;16267;48.194;11.546;2022-09-02T06:09:22;95990.47;;;14.65;81.31
29239;BME280;16267;48.194;11.546;2022-09-02T06:11:49;95993.06;;;14.68;81.55
29239;BME280;16267;48.194;11.546;2022-09-02T06:14:21;95984.88;;;14.72;81.89
29239;BME280;16267;48.194;11.546;2022-09-02T06:16:50;95990.59;;;14.74;82.24
29239;BME280;16267;48.194;11.546;2022-09-02T06:19:17;95987.06;;;14.77;82.17
29239;BME280;16267;48.194;11.546;2022-09-02T06:21:43;95988.13;;;14.80;82.58
29239;BME280;16267;48.194;11.546;2022-09-02T06:24:11;95980.25;;;14.85;83.16
29239;BME280;16267;48.194;11.546;2022-09-02T06:26:39;95982.88;;;14.89;83.68
29239;BME280;16267;48.194;11.546;2022-09-02T06:29:06;95987.44;;;14.92;83.96
29239;BME280;16267;48.194;11.546;2022-09-02T06:31:32;95983.47;;;14.97;82.67
29239;BME280;16267;48.194;11.546;2022-09-02T06:33:58;95986.81;;;15.01;82.77
29239;BME280;16267;48.194;11.546;2022-09-02T06:36:27;95984.00;;;15.04;83.43
29239;BME280;16267;48.194;11.546;2022-09-02T06:38:56;95982.31;;;15.10;83.93
29239;BME280;16267;48.194;11.546;2022-09-02T06:41:29;95980.34;;;15.11;84.69
29239;BME280;16267;48.194;11.546;2022-09-02T06:43:58;95980.66;;;15.13;84.21
29239;BME280;16267;48.194;11.546;2022-09-02T06:46:37;95977.44;;;15.18;84.14
29239;BME280;16267;48.194;11.546;2022-09-02T06:49:06;95981.56;;;15.23;84.04
29239;BME280;16267;48.194;11.546;2022-09-02T06:51:40;95980.59;;;15.29;84.17
29239;BME280;16267;48.194;11.546;2022-09-02T06:54:10;95975.41;;;15.35;83.45
29239;BME280;16267;48.194;11.546;2022-09-02T06:56:37;95971.41;;;15.39;83.66
29239;BME280;16267;48.194;11.546;2022-09-02T06:59:05;95977.78;;;15.46;83.97
29239;BME280;16267;48.194;11.546;2022-09-02T07:01:32;95988.59;;;15.46;84.17
29239;BME280;16267;48.194;11.546;2022-09-02T07:03:58;95983.88;;;15.50;83.34
29239;BME280;16267;48.194;11.546;2022-09-02T07:06:47;95984.09;;;15.55;82.37
29239;BME280;16267;48.194;11.546;2022-09-02T07:09:19;95974.66;;;15.60;82.28
29239;BME280;16267;48.194;11.546;2022-09-02T07:11:46;95980.84;;;15.60;82.16
29239;BME280;16267;48.194;11.546;2022-09-02T07:14:18;95984.94;;;15.65;82.88
29239;BME280;16267;48.194;11.546;2022-09-02T07:16:49;95984.09;;;15.68;82.03
29239;BME280;16267;48.194;11.546;2022-09-02T07:19:17;95980.44;;;15.75;82.53
29239;BME280;16267;48.194;11.546;2022-09-02T07:21:44;95987.69;;;15.78;82.13
29239;BME280;16267;48.194;11.546;2022-09-02T07:24:12;95980.31;;;15.78;81.93
29239;BME280;16267;48.194;11.546;2022-09-02T07:26:40;95988.31;;;15.82;81.11
29239;BME280;16267;48.194;11.546;2022-09-02T07:29:07;95992.00;;;15.88;81.14
29239;BME280;16267;48.194;11.546;2022-09-02T07:31:36;95993.72;;;15.95;81.41
29239;BME280;16267;48.194;11.546;2022-09-02T07:34:04;95987.78;;;16.00;80.85
29239;BME280;16267;48.194;11.546;2022-09-02T07:36:32;95986.78;;;16.06;80.29
29239;BME280;16267;48.194;11.546;2022-09-02T07:39:00;95977.03;;;16.09;80.49
29239;BME280;16267;48.194;11.546;2022-09-02T07:41:26;95973.78;;;16.14;80.36
29239;BME280;16267;48.194;11.546;2022-09-02T07:43:52;95974.31;;;16.22;80.12
29239;BME280;16267;48.194;11.546;2022-09-02T07:46:18;95972.13;;;16.30;80.20
29239;BME280;16267;48.194;11.546;2022-09-02T07:48:44;95969.16;;;16.37;79.41
29239;BME280;16267;48.194;11.546;2022-09-02T07:51:10;95974.34;;;16.44;79.02
29239;BME280;16267;48.194;11.546;2022-09-02T07:53:37;95970.63;;;16.50;79.13
29239;BME280;16267;48.194;11.546;2022-09-02T07:56:03;95972.38;;;16.57;78.33
29239;BME280;16267;48.194;11.546;2022-09-02T07:58:29;95965.59;;;16.62;77.65
29239;BME280;16267;48.194;11.546;2022-09-02T08:00:55;95966.56;;;16.68;77.81
29239;BME280;16267;48.194;11.546;2022-09-02T08:03:24;95971.88;;;16.71;76.86
29239;BME280;16267;48.194;11.546;2022-09-02T08:05:50;95976.31;;;16.78;76.74
29239;BME280;16267;48.194;11.546;2022-09-02T08:08:19;95963.25;;;16.86;76.35
29239;BME280;16267;48.194;11.546;2022-09-02T08:10:48;95963.88;;;16.90;75.02
29239;BME280;16267;48.194;11.546;2022-09-02T08:13:15;95966.78;;;16.95;75.95
29239;BME280;16267;48.194;11.546;2022-09-02T08:15:41;95970.00;;;17.03;75.63
29239;BME280;16267;48.194;11.546;2022-09-02T08:18:07;95970.50;;;17.11;74.73
29239;BME280;16267;48.194;11.546;2022-09-02T08:20:34;95967.22;;;17.16;73.74
29239;BME280;16267;48.194;11.546;2022-09-02T08:23:03;95963.47;;;17.23;72.64
29239;BME280;16267;48.194;11.546;2022-09-02T08:25:32;95963.22;;;17.30;71.70
29239;BME280;16267;48.194;11.546;2022-09-02T08:27:58;95965.78;;;17.33;70.06
29239;BME280;16267;48.194;11.546;2022-09-02T08:30:24;95965.97;;;17.39;70.25
29239;BME280;16267;48.194;11.546;2022-09-02T08:32:50;95959.50;;;17.46;69.92
29239;BME280;16267;48.194;11.546;2022-09-02T08:35:16;95960.00;;;17.53;69.35
29239;BME280;16267;48.194;11.546;2022-09-02T08:37:42;95955.06;;;17.61;69.71
29239;BME280;16267;48.194;11.546;2022-09-02T08:40:15;95957.50;;;17.68;67.98
29239;BME280;16267;48.194;11.546;2022-09-02T08:42:49;95953.00;;;17.74;67.47
29239;BME280;16267;48.194;11.546;2022-09-02T08:45:37;95952.53;;;17.76;64.34
29239;BME280;16267;48.194;11.546;2022-09-02T08:48:15;95957.09;;;17.79;63.10
29239;BME280;16267;48.194;11.546;2022-09-02T08:50:44;95943.69;;;17.84;61.58
29239;BME280;16267;48.194;11.546;2022-09-02T08:55:55;95955.94;;;17.89;58.21
29239;BME280;16267;48.194;11.546;2022-09-02T08:58:31;95949.59;;;17.92;57.69
29239;BME280;16267;48.194;11.546;2022-09-02T09:01:21;95946.28;;;17.97;58.76
29239;BME280;16267;48.194;11.546;2022-09-02T09:07:17;95949.91;;;18.03;55.44
29239;BME280;16267;48.194;11.546;2022-09-02T09:10:15;95946.47;;;18.12;57.56
29239;BME280;16267;48.194;11.546;2022-09-02T09:13:01;95949.34;;;18.18;57.10
29239;BME280;16267;48.194;11.546;2022-09-02T09:16:07;95948.16;;;18.28;57.38
29239;BME280;16267;48.194;11.546;2022-09-02T09:18:58;95952.22;;;18.33;55.66
29239;BME280;16267;48.194;11.546;2022-09-02T09:21:24;95944.25;;;18.38;54.97
29239;BME280;16267;48.194;11.546;2022-09-02T09:23:51;95944.84;;;18.42;55.51
29239;BME280;16267;48.194;11.546;2022-09-02T09:26:25;95948.59;;;18.45;53.81
29239;BME280;16267;48.194;11.546;2022-09-02T09:28:53;95951.94;;;18.49;54.23
29239;BME280;16267;48.194;11.546;2022-09-02T09:31:31;95939.69;;;18.54;54.33
29239;BME280;16267;48.194;11.546;2022-09-02T09:34:05;95930.81;;;18.62;53.71
29239;BME280;16267;48.194;11.546;2022-09-02T09:41:48;95929.47;;;18.76;52.89
29239;BME280;16267;48.194;11.546;2022-09-02T09:44:46;95928.69;;;18.85;53.45
29239;BME280;16267;48.194;11.546;2022-09-02T09:47:22;95929.13;;;18.92;52.83
29239;BME280;16267;48.194;11.546;2022-09-02T09:49:52;95930.94;;;18.96;50.47
29239;BME280;16267;48.194;11.546;2022-09-02T09:52:28;95929.13;;;19.02;51.64
29239;BME280;16267;48.194;11.546;2022-09-02T09:55:19;95928.50;;;19.07;48.89
29239;BME280;16267;48.194;11.546;2022-09-02T09:57:48;95929.84;;;19.11;48.16
29239;BME280;16267;48.194;11.546;2022-09-02T10:02:51;95928.59;;;19.22;47.57
29239;BME280;16267;48.194;11.546;2022-09-02T10:05:35;95933.88;;;19.25;47.65
29239;BME280;16267;48.194;11.546;2022-09-02T10:10:38;95927.94;;;19.36;46.63
29239;BME280;16267;48.194;11.546;2022-09-02T10:13:30;95917.06;;;19.36;45.92
29239;BME280;16267;48.194;11.546;2022-09-02T10:16:18;95919.59;;;19.39;45.95
29239;BME280;16267;48.194;11.546;2022-09-02T10:25:13;95921.56;;;19.48;45.14
29239;BME280;16267;48.194;11.546;2022-09-02T10:37:18;95917.56;;;19.58;45.07
29239;BME280;16267;48.194;11.546;2022-09-02T10:40:19;95914.69;;;19.62;44.49
29239;BME280;16267;48.194;11.546;2022-09-02T10:43:05;95916.50;;;19.65;45.39
29239;BME280;16267;48.194;11.546;2022-09-02T10:45:44;95915.13;;;19.70;43.44
29239;BME280;16267;48.194;11.546;2022-09-02T10:57:43;95897.56;;;19.95;44.78
29239;BME280;16267;48.194;11.546;2022-09-02T11:00:11;95892.34;;;20.06;45.38
29239;BME280;16267;48.194;11.546;2022-09-02T11:02:53;95894.28;;;20.15;45.74
29239;BME280;16267;48.194;11.546;2022-09-02T11:11:10;95883.41;;;20.30;45.25
29239;BME280;16267;48.194;11.546;2022-09-02T11:26:36;95869.78;;;20.54;43.88
29239;BME280;16267;48.194;11.546;2022-09-02T11:29:31;95877.94;;;20.54;43.54
29239;BME280;16267;48.194;11.546;2022-09-02T11:35:21;95864.78;;;20.67;44.79
29239;BME280;16267;48.194;11.546;2022-09-02T11:40:47;95872.69;;;20.80;44.70
29239;BME280;16267;48.194;11.546;2022-09-02T11:43:47;95870.81;;;20.86;44.08
29239;BME280;16267;48.194;11.546;2022-09-02T11:50:00;95867.88;;;20.89;45.00
29239;BME280;16267;48.194;11.546;2022-09-02T11:52:37;95859.53;;;20.93;44.90
29239;BME280;16267;48.194;11.546;2022-09-02T11:55:39;95852.38;;;20.96;44.70
29239;BME280;16267;48.194;11.546;2022-09-02T11:58:07;95858.88;;;20.98;44.25
29239;BME280;16267;48.194;11.546;2022-09-02T12:01:03;95860.66;;;21.01;44.57
29239;BME280;16267;48.194;11.546;2022-09-02T12:03:28;95858.94;;;21.04;44.25
29239;BME280;16267;48.194;11.546;2022-09-02T12:06:16;95864.22;;;21.07;44.57
29239;BME280;16267;48.194;11.546;2022-09-02T12:11:46;95856.47;;;21.06;43.81
29239;BME280;16267;48.194;11.546;2022-09-02T12:17:36;95855.53;;;21.09;44.01
29239;BME280;16267;48.194;11.546;2022-09-02T12:20:09;95856.09;;;21.13;43.54
29239;BME280;16267;48.194;11.546;2022-09-02T12:22:39;95855.91;;;21.16;43.95
29239;BME280;16267;48.194;11.546;2022-09-02T12:27:49;95845.81;;;21.23;43.89
29239;BME280;16267;48.194;11.546;2022-09-02T12:33:51;95857.50;;;21.23;43.12
29239;BME280;16267;48.194;11.546;2022-09-02T12:45:08;95840.44;;;21.28;42.61
29239;BME280;16267;48.194;11.546;2022-09-02T12:53:34;95836.78;;;21.31;42.40
29239;BME280;16267;48.194;11.546;2022-09-02T12:56:15;95833.78;;;21.29;42.93
29239;BME280;16267;48.194;11.546;2022-09-02T12:58:56;95841.69;;;21.27;42.35
29239;BME280;16267;48.194;11.546;2022-09-02T13:02:15;95837.25;;;21.30;42.35
29239;BME280;16267;48.194;11.546;2022-09-02T13:32:28;95815.47;;;21.50;42.69
29239;BME280;16267;48.194;11.546;2022-09-02T13:35:00;95812.28;;;21.52;42.36
29239;BME280;16267;48.194;11.546;2022-09-02T13:40:03;95815.00;;;21.52;41.91
29239;BME280;16267;48.194;11.546;2022-09-02T13:42:31;95808.78;;;21.51;42.15
29239;BME280;16267;48.194;11.546;2022-09-02T13:45:16;95808.78;;;21.51;42.27
29239;BME280;16267;48.194;11.546;2022-09-02T13:47:48;95805.84;;;21.55;41.86
29239;BME280;16267;48.194;11.546;2022-09-02T13:50:19;95802.66;;;21.56;42.06
29239;BME280;16267;48.194;11.546;2022-09-02T13:52:54;95799.72;;;21.60;42.23
29239;BME280;16267;48.194;11.546;2022-09-02T13:55:21;95801.94;;;21.61;42.04
29239;BME280;16267;48.194;11.546;2022-09-02T13:58:00;95806.19;;;21.63;41.86
29239;BME280;16267;48.194;11.546;2022-09-02T14:00:38;95807.22;;;21.65;42.39
29239;BME280;16267;48.194;11.546;2022-09-02T14:03:08;95806.00;;;21.66;41.94
29239;BME280;16267;48.194;11.546;2022-09-02T14:05:38;95801.56;;;21.69;42.74
29239;BME280;16267;48.194;11.546;2022-09-02T14:08:10;95805.31;;;21.71;42.42
29239;BME280;16267;48.194;11.546;2022-09-02T14:10:37;95802.88;;;21.73;42.21
29239;BME280;16267;48.194;11.546;2022-09-02T14:13:07;95792.91;;;21.70;42.22
29239;BME280;16267;48.194;11.546;2022-09-02T14:15:34;95798.38;;;21.70;42.40
29239;BME280;16267;48.194;11.546;2022-09-02T14:18:12;95794.09;;;21.69;41.86
29239;BME280;16267;48.194;11.546;2022-09-02T14:21:19;95786.94;;;21.72;42.28
29239;BME280;16267;48.194;11.546;2022-09-02T14:23:51;95790.97;;;21.76;43.32
29239;BME280;16267;48.194;11.546;2022-09-02T14:26:42;95790.75;;;21.80;43.24
29239;BME280;16267;48.194;11.546;2022-09-02T14:29:14;95788.03;;;21.80;42.01
29239;BME280;16267;48.194;11.546;2022-09-02T14:31:43;95780.88;;;21.82;42.56
29239;BME280;16267;48.194;11.546;2022-09-02T14:34:36;95774.16;;;21.83;42.34
29239;BME280;16267;48.194;11.546;2022-09-02T14:37:26;95775.69;;;21.85;41.24
29239;BME280;16267;48.194;11.546;2022-09-02T14:40:03;95771.91;;;21.82;41.50
29239;BME280;16267;48.194;11.546;2022-09-02T14:42:48;95762.91;;;21.76;41.69
29239;BME280;16267;48.194;11.546;2022-09-02T14:47:50;95761.22;;;21.78;41.69
29239;BME280;16267;48.194;11.546;2022-09-02T14:50:19;95758.19;;;21.76;42.10
29239;BME280;16267;48.194;11.546;2022-09-02T14:52:57;95762.63;;;21.74;41.77
29239;BME280;16267;48.194;11.546;2022-09-02T14:55:51;95756.22;;;21.77;41.43
29239;BME280;16267;48.194;11.546;2022-09-02T14:58:21;95751.50;;;21.77;41.27
29239;BME280;16267;48.194;11.546;2022-09-02T15:00:51;95750.47;;;21.75;41.23
29239;BME280;16267;48.194;11.546;2022-09-02T15:03:19;95758.66;;;21.75;40.92
29239;BME280;16267;48.194;11.546;2022-09-02T15:05:46;95748.03;;;21.77;41.05
29239;BME280;16267;48.194;11.546;2022-09-02T15:08:12;95752.47;;;21.74;41.00
29239;BME280;16267;48.194;11.546;2022-09-02T15:10:39;95748.03;;;21.77;41.98
29239;BME280;16267;48.194;11.546;2022-09-02T15:13:33;95748.47;;;21.75;42.03
29239;BME280;16267;48.194;11.546;2022-09-02T15:15:59;95751.50;;;21.77;42.45
29239;BME280;16267;48.194;11.546;2022-09-02T15:18:25;95750.28;;;21.78;41.59
29239;BME280;16267;48.194;11.546;2022-09-02T15:20:51;95743.31;;;21.77;41.38
29239;BME280;16267;48.194;11.546;2022-09-02T15:23:17;95739.06;;;21.76;41.65
29239;BME280;16267;48.194;11.546;2022-09-02T15:25:43;95747.28;;;21.76;41.33
29239;BME280;16267;48.194;11.546;2022-09-02T15:28:09;95741.81;;;21.76;41.32
29239;BME280;16267;48.194;11.546;2022-09-02T15:30:35;95742.28;;;21.75;41.49
29239;BME280;16267;48.194;11.546;2022-09-02T15:33:06;95744.75;;;21.73;41.25
29239;BME280;16267;48.194;11.546;2022-09-02T15:35:33;95749.19;;;21.70;41.90
29239;BME280;16267;48.194;11.546;2022-09-02T15:38:01;95749.94;;;21.71;41.55
29239;BME280;16267;48.194;11.546;2022-09-02T15:52:49;95746.59;;;21.61;41.54
29239;BME280;16267;48.194;11.546;2022-09-02T15:55:15;95749.81;;;21.59;41.53
29239;BME280;16267;48.194;11.546;2022-09-02T15:57:44;95744.06;;;21.57;41.59
29239;BME280;16267;48.194;11.546;2022-09-02T16:00:10;95738.63;;;21.57;41.40
29239;BME280;16267;48.194;11.546;2022-09-02T16:02:40;95739.84;;;21.56;41.44
29239;BME280;16267;48.194;11.546;2022-09-02T16:05:06;95743.03;;;21.55;41.48
29239;BME280;16267;48.194;11.546;2022-09-02T16:07:37;95735.06;;;21.51;41.12
29239;BME280;16267;48.194;11.546;2022-09-02T16:10:04;95729.06;;;21.47;41.44
29239;BME280;16267;48.194;11.546;2022-09-02T16:12:31;95734.03;;;21.49;41.63
29239;BME280;16267;48.194;11.546;2022-09-02T16:14:57;95728.81;;;21.45;41.49
29239;BME280;16267;48.194;11.546;2022-09-02T16:17:23;95726.06;;;21.45;41.95
29239;BME280;16267;48.194;11.546;2022-09-02T16:19:49;95723.81;;;21.44;41.67
29239;BME280;16267;48.194;11.546;2022-09-02T16:22:15;95720.31;;;21.43;41.84
29239;BME280;16267;48.194;11.546;2022-09-02T16:24:40;95730.50;;;21.43;41.85
29239;BME280;16267;48.194;11.546;2022-09-02T16:27:06;95722.78;;;21.41;41.70
29239;BME280;16267;48.194;11.546;2022-09-02T16:29:34;95718.28;;;21.38;41.93
29239;BME280;16267;48.194;11.546;2022-09-02T16:32:02;95717.72;;;21.34;42.14
29239;BME280;16267;48.194;11.546;2022-09-02T16:34:29;95719.41;;;21.31;42.33
29239;BME280;16267;48.194;11.546;2022-09-02T16:36:55;95722.63;;;21.30;41.83
29239;BME280;16267;48.194;11.546;2022-09-02T16:39:21;95722.63;;;21.30;42.36
29239;BME280;16267;48.194;11.546;2022-09-02T16:41:51;95723.34;;;21.30;42.50
29239;BME280;16267;48.194;11.546;2022-09-02T16:44:24;95723.34;;;21.30;42.79
29239;BME280;16267;48.194;11.546;2022-09-02T16:46:52;95730.06;;;21.29;42.91
29239;BME280;16267;48.194;11.546;2022-09-02T16:49:20;95731.00;;;21.26;42.29
29239;BME280;16267;48.194;11.546;2022-09-02T16:51:50;95726.00;;;21.25;42.26
29239;BME280;16267;48.194;11.546;2022-09-02T16:54:17;95730.44;;;21.22;42.49
29239;BME280;16267;48.194;11.546;2022-09-02T16:56:45;95727.66;;;21.16;41.85
29239;BME280;16267;48.194;11.546;2022-09-02T16:59:11;95723.44;;;21.15;42.89
29239;BME280;16267;48.194;11.546;2022-09-02T17:01:38;95719.94;;;21.15;42.94
29239;BME280;16267;48.194;11.546;2022-09-02T17:04:05;95720.13;;;21.11;42.51
29239;BME280;16267;48.194;11.546;2022-09-02T17:06:32;95718.84;;;21.07;42.68
29239;BME280;16267;48.194;11.546;2022-09-02T17:08:58;95717.06;;;21.04;42.81
29239;BME280;16267;48.194;11.546;2022-09-02T17:11:32;95719.81;;;21.04;42.73
29239;BME280;16267;48.194;11.546;2022-09-02T17:14:05;95709.84;;;21.01;43.04
29239;BME280;16267;48.194;11.546;2022-09-02T17:16:34;95715.75;;;20.99;43.01
29239;BME280;16267;48.194;11.546;2022-09-02T17:19:00;95719.97;;;21.00;43.01
29239;BME280;16267;48.194;11.546;2022-09-02T17:21:36;95724.41;;;20.98;43.34
29239;BME280;16267;48.194;11.546;2022-09-02T17:24:04;95716.72;;;20.96;43.68
29239;BME280;16267;48.194;11.546;2022-09-02T17:26:36;95717.94;;;20.95;44.12
29239;BME280;16267;48.194;11.546;2022-09-02T17:29:14;95718.88;;;20.92;44.10
29239;BME280;16267;48.194;11.546;2022-09-02T17:31:42;95714.66;;;20.91;44.00
29239;BME280;16267;48.194;11.546;2022-09-02T17:34:08;95713.34;;;20.86;44.44
29239;BME280;16267;48.194;11.546;2022-09-02T17:36:39;95711.84;;;20.85;44.41
29239;BME280;16267;48.194;11.546;2022-09-02T17:39:15;95712.53;;;20.80;44.17
29239;BME280;16267;48.194;11.546;2022-09-02T17:41:42;95714.72;;;20.76;44.56
29239;BME280;16267;48.194;11.546;2022-09-02T17:44:30;95717.16;;;20.74;44.77
29239;BME280;16267;48.194;11.546;2022-09-02T17:46:58;95720.34;;;20.72;44.89
29239;BME280;16267;48.194;11.546;2022-09-02T17:49:24;95720.06;;;20.70;45.39
29239;BME280;16267;48.194;11.546;2022-09-02T17:51:50;95717.06;;;20.68;45.47
29239;BME280;16267;48.194;11.546;2022-09-02T17:54:16;95714.81;;;20.67;45.89
29239;BME280;16267;48.194;11.546;2022-09-02T17:57:37;95718.47;;;20.64;46.02
29239;BME280;16267;48.194;11.546;2022-09-02T18:00:15;95721.88;;;20.59;45.97
29239;BME280;16267;48.194;11.546;2022-09-02T18:05:37;95716.78;;;20.52;46.81
29239;BME280;16267;48.194;11.546;2022-09-02T18:11:06;95723.25;;;20.39;46.33
29239;BME280;16267;48.194;11.546;2022-09-02T18:13:49;95719.50;;;20.37;47.05
29239;BME280;16267;48.194;11.546;2022-09-02T18:17:00;95721.97;;;20.35;47.35
29239;BME280;16267;48.194;11.546;2022-09-02T18:36:38;95751.56;;;20.12;48.62
29239;BME280;16267;48.194;11.546;2022-09-02T18:44:57;95754.34;;;20.03;49.55
29239;BME280;16267;48.194;11.546;2022-09-02T18:47:38;95748.66;;;20.01;49.39
29239;BME280;16267;48.194;11.546;2022-09-02T18:50:09;95747.13;;;20.00;49.48
29239;BME280;16267;48.194;11.546;2022-09-02T18:52:36;95748.53;;;19.95;49.51
29239;BME280;16267;48.194;11.546;2022-09-02T18:55:14;95739.34;;;19.93;49.66
29239;BME280;16267;48.194;11.546;2022-09-02T18:57:55;95741.75;;;19.91;49.95
29239;BME280;16267;48.194;11.546;2022-09-02T19:00:22;95752.38;;;19.89;50.27
29239;BME280;16267;48.194;11.546;2022-09-02T19:02:59;95756.78;;;19.86;50.34
29239;BME280;16267;48.194;11.546;2022-09-02T19:05:32;95760.13;;;19.81;49.85
29239;BME280;16267;48.194;11.546;2022-09-02T19:08:06;95755.63;;;19.78;50.14
29239;BME280;16267;48.194;11.546;2022-09-02T19:11:12;95771.41;;;19.74;50.69
29239;BME280;16267;48.194;11.546;2022-09-02T19:13:53;95770.38;;;19.71;51.35
29239;BME280;16267;48.194;11.546;2022-09-02T19:16:22;95780.97;;;19.69;51.16
29239;BME280;16267;48.194;11.546;2022-09-02T19:18:49;95781.88;;;19.66;51.30
29239;BME280;16267;48.194;11.546;2022-09-02T19:21:30;95780.81;;;19.64;51.78
29239;BME280;16267;48.194;11.546;2022-09-02T19:24:04;95786.44;;;19.60;51.11
29239;BME280;16267;48.194;11.546;2022-09-02T19:26:31;95782.69;;;19.57;51.82
29239;BME280;16267;48.194;11.546;2022-09-02T19:28:58;95781.63;;;19.55;51.29
29239;BME280;16267;48.194;11.546;2022-09-02T19:31:27;95776.66;;;19.53;51.62
29239;BME280;16267;48.194;11.546;2022-09-02T19:33:55;95771.38;;;19.50;51.62
29239;BME280;16267;48.194;11.546;2022-09-02T19:36:27;95771.88;;;19.48;51.63
29239;BME280;16267;48.194;11.546;2022-09-02T19:38:54;95772.31;;;19.47;51.97
29239;BME280;16267;48.194;11.546;2022-09-02T19:41:22;95764.34;;;19.43;51.70
29239;BME280;16267;48.194;11.546;2022-09-02T19:43:50;95761.31;;;19.41;51.59
29239;BME280;16267;48.194;11.546;2022-09-02T19:46:16;95756.81;;;19.38;50.98
29239;BME280;16267;48.194;11.546;2022-09-02T19:48:44;95756.50;;;19.36;51.75
29239;BME280;16267;48.194;11.546;2022-09-02T19:51:14;95758.19;;;19.33;52.31
29239;BME280;16267;48.194;11.546;2022-09-02T19:53:42;95764.25;;;19.28;51.17
29239;BME280;16267;48.194;11.546;2022-09-02T19:56:09;95759.75;;;19.25;51.66
29239;BME280;16267;48.194;11.546;2022-09-02T19:58:35;95756.72;;;19.23;51.99
29239;BME280;16267;48.194;11.546;2022-09-02T20:01:03;95754.19;;;19.20;51.85
29239;BME280;16267;48.194;11.546;2022-09-02T20:03:31;95760.09;;;19.18;52.03
29239;BME280;16267;48.194;11.546;2022-09-02T20:05:57;95762.22;;;19.14;51.45
29239;BME280;16267;48.194;11.546;2022-09-02T20:08:24;95761.66;;;19.10;51.27
29239;BME280;16267;48.194;11.546;2022-09-02T20:10:59;95770.75;;;19.07;51.38
29239;BME280;16267;48.194;11.546;2022-09-02T20:13:27;95772.88;;;19.03;51.81
29239;BME280;16267;48.194;11.546;2022-09-02T20:15:55;95779.53;;;19.02;52.17